createdAt,value
2023-07-28T00:00:15.413Z,27.60
2023-07-28T00:02:41.582Z,27.60
2023-07-28T00:05:07.990Z,27.70
2023-07-28T00:07:35.943Z,27.70
2023-07-28T00:10:02.336Z,27.70
2023-07-28T00:12:28.622Z,27.70
2023-07-28T00:14:54.846Z,27.70
2023-07-28T00:17:21.073Z,27.70
2023-07-28T00:19:47.265Z,27.60
2023-07-28T00:22:13.445Z,27.70
2023-07-28T00:24:39.640Z,27.70
2023-07-28T00:27:06.177Z,27.70
2023-07-28T00:29:32.318Z,27.70
2023-07-28T00:31:58.482Z,27.70
2023-07-28T00:34:24.699Z,27.70
2023-07-28T00:36:50.952Z,27.60
2023-07-28T00:39:17.168Z,27.70
2023-07-28T00:41:43.316Z,27.70
2023-07-28T00:44:09.471Z,27.70
2023-07-28T00:46:36.027Z,27.70
2023-07-28T00:49:04.316Z,27.70
2023-07-28T00:51:31.553Z,27.70
2023-07-28T00:53:59.738Z,27.70
2023-07-28T00:56:26.032Z,27.70
2023-07-28T00:58:52.363Z,27.70
2023-07-28T01:01:18.575Z,27.70
2023-07-28T01:03:44.862Z,27.70
2023-07-28T01:06:44.570Z,27.70
2023-07-28T01:09:14.629Z,27.70
2023-07-28T01:11:54.368Z,27.70
2023-07-28T01:14:20.560Z,27.70
2023-07-28T01:16:46.716Z,27.70
2023-07-28T01:19:13.289Z,27.70
2023-07-28T01:21:44.435Z,27.70
2023-07-28T01:24:27.762Z,27.70
2023-07-28T01:26:55.256Z,27.70
2023-07-28T01:29:22.650Z,27.70
2023-07-28T01:31:48.945Z,27.70
2023-07-28T01:34:15.152Z,27.70
2023-07-28T01:36:41.338Z,27.70
2023-07-28T01:39:07.497Z,27.70
2023-07-28T01:41:33.665Z,27.70
2023-07-28T01:44:00.076Z,27.70
2023-07-28T01:46:26.311Z,27.70
2023-07-28T01:48:52.529Z,27.70
2023-07-28T01:51:18.724Z,27.70
2023-07-28T01:53:44.913Z,27.70
2023-07-28T01:56:11.079Z,27.70
2023-07-28T01:58:37.247Z,27.70
2023-07-28T02:01:03.437Z,27.70
2023-07-28T02:03:29.583Z,27.70
2023-07-28T02:05:55.787Z,27.70
2023-07-28T02:08:21.955Z,27.70
2023-07-28T02:10:48.101Z,27.70
2023-07-28T02:13:14.376Z,27.70
2023-07-28T02:15:41.525Z,27.70
2023-07-28T02:18:07.967Z,27.70
2023-07-28T02:20:36.035Z,27.70
2023-07-28T02:23:02.701Z,27.70
2023-07-28T02:25:29.148Z,27.70
2023-07-28T02:27:55.517Z,27.70
2023-07-28T02:30:21.687Z,27.70
2023-07-28T02:32:47.902Z,27.70
2023-07-28T02:35:14.210Z,27.70
2023-07-28T02:37:40.439Z,27.70
2023-07-28T02:40:07.286Z,27.70
2023-07-28T02:42:35.661Z,27.70
2023-07-28T02:45:02.709Z,27.70
2023-07-28T02:47:28.850Z,27.70
2023-07-28T02:49:55.060Z,27.70
2023-07-28T02:52:21.196Z,27.70
2023-07-28T02:54:48.953Z,27.70
2023-07-28T02:57:15.082Z,27.70
2023-07-28T02:59:41.241Z,27.70
2023-07-28T03:02:07.451Z,27.70
2023-07-28T03:04:33.709Z,27.70
2023-07-28T03:06:59.910Z,27.60
2023-07-28T03:09:26.436Z,27.60
2023-07-28T03:11:52.689Z,27.70
2023-07-28T03:14:18.906Z,27.70
2023-07-28T03:16:45.121Z,27.60
2023-07-28T03:19:11.388Z,27.60
2023-07-28T03:21:39.845Z,27.60
2023-07-28T03:24:06.810Z,27.60
2023-07-28T03:26:33.460Z,27.60
2023-07-28T03:28:59.886Z,27.60
2023-07-28T03:31:26.113Z,27.60
2023-07-28T03:33:52.317Z,27.60
2023-07-28T03:36:19.903Z,27.60
2023-07-28T03:38:46.790Z,27.60
2023-07-28T03:41:13.276Z,27.60
2023-07-28T03:43:40.336Z,27.60
2023-07-28T03:46:06.542Z,27.60
2023-07-28T03:48:32.743Z,27.60
2023-07-28T03:50:58.910Z,27.60
2023-07-28T03:53:25.091Z,27.60
2023-07-28T03:55:51.236Z,27.60
2023-07-28T03:58:17.382Z,27.60
2023-07-28T04:00:43.571Z,27.60
2023-07-28T04:03:09.741Z,27.60
2023-07-28T04:05:37.385Z,27.60
2023-07-28T04:08:03.684Z,27.60
2023-07-28T04:10:30.302Z,27.60
2023-07-28T04:12:56.475Z,27.50
2023-07-28T04:15:22.633Z,27.60
2023-07-28T04:17:48.865Z,27.60
2023-07-28T04:20:15.544Z,27.50
2023-07-28T04:22:41.672Z,27.50
2023-07-28T04:25:07.996Z,27.50
2023-07-28T04:27:34.217Z,27.50
2023-07-28T04:30:00.391Z,27.50
2023-07-28T04:32:26.699Z,27.50
2023-07-28T04:34:54.066Z,27.50
2023-07-28T04:37:20.226Z,27.50
2023-07-28T04:39:46.391Z,27.50
2023-07-28T04:42:12.616Z,27.50
2023-07-28T04:44:40.872Z,27.50
2023-07-28T04:47:07.201Z,27.50
2023-07-28T04:49:33.452Z,27.50
2023-07-28T04:51:59.631Z,27.50
2023-07-28T04:54:25.805Z,27.50
2023-07-28T04:56:53.531Z,27.50
2023-07-28T04:59:19.897Z,27.50
2023-07-28T05:01:46.107Z,27.50
2023-07-28T05:04:12.970Z,27.50
2023-07-28T05:06:39.138Z,27.50
2023-07-28T05:09:05.317Z,27.40
2023-07-28T05:11:31.484Z,27.40
2023-07-28T05:13:57.672Z,27.40
2023-07-28T05:16:23.927Z,27.30
2023-07-28T05:18:50.133Z,27.30
2023-07-28T05:21:16.262Z,27.30
2023-07-28T05:23:42.417Z,27.20
2023-07-28T05:26:08.594Z,27.20
2023-07-28T05:28:36.178Z,27.20
2023-07-28T05:31:06.998Z,27.10
2023-07-28T05:33:33.239Z,27.20
2023-07-28T05:36:03.441Z,27.20
2023-07-28T05:38:31.532Z,27.10
2023-07-28T05:41:00.881Z,27.20
2023-07-28T05:43:27.764Z,27.10
2023-07-28T05:45:53.938Z,27.10
2023-07-28T05:48:20.167Z,27.10
2023-07-28T05:50:46.766Z,27.10
2023-07-28T05:53:14.016Z,27.10
2023-07-28T05:55:40.869Z,27.10
2023-07-28T05:58:07.048Z,27.10
2023-07-28T06:00:33.381Z,27.10
2023-07-28T06:02:59.810Z,27.10
2023-07-28T06:05:26.110Z,27.10
2023-07-28T06:07:52.355Z,27.10
2023-07-28T06:10:18.590Z,27.10
2023-07-28T06:12:45.131Z,27.10
2023-07-28T06:15:11.302Z,27.10
2023-07-28T06:17:37.560Z,27.10
2023-07-28T06:20:04.437Z,27.10
2023-07-28T06:22:30.693Z,27.10
2023-07-28T06:24:56.856Z,27.10
2023-07-28T06:27:23.402Z,27.10
2023-07-28T06:29:49.523Z,27.10
2023-07-28T06:32:16.158Z,27.10
2023-07-28T06:34:42.346Z,27.10
2023-07-28T06:37:08.483Z,27.10
2023-07-28T06:39:34.802Z,27.10
2023-07-28T06:42:00.948Z,27.10
2023-07-28T06:44:27.193Z,27.10
2023-07-28T06:46:53.438Z,27.10
2023-07-28T06:49:19.605Z,27.10
2023-07-28T06:51:45.771Z,27.10
2023-07-28T06:54:12.911Z,27.10
2023-07-28T06:56:40.029Z,27.10
2023-07-28T06:59:14.581Z,27.10
2023-07-28T07:01:44.072Z,27.10
2023-07-28T07:04:10.299Z,27.10
2023-07-28T07:06:36.625Z,27.10
2023-07-28T07:09:03.863Z,27.10
2023-07-28T07:11:30.109Z,27.10
2023-07-28T07:13:56.381Z,27.10
2023-07-28T07:16:24.680Z,27.10
2023-07-28T07:18:53.895Z,27.10
2023-07-28T07:21:20.065Z,27.10
2023-07-28T07:23:46.304Z,27.10
2023-07-28T07:26:12.446Z,27.10
2023-07-28T07:28:38.832Z,27.10
2023-07-28T07:31:05.124Z,27.10
2023-07-28T07:33:31.397Z,27.00
2023-07-28T07:35:57.560Z,27.10
2023-07-28T07:38:23.796Z,27.10
2023-07-28T07:40:50.024Z,27.10
2023-07-28T07:43:20.642Z,27.10
2023-07-28T07:45:47.607Z,27.10
2023-07-28T07:48:14.078Z,27.10
2023-07-28T07:50:40.840Z,27.10
2023-07-28T07:53:07.019Z,27.00
2023-07-28T07:55:33.126Z,27.10
2023-07-28T07:57:59.309Z,27.10
2023-07-28T08:00:25.476Z,27.00
2023-07-28T08:02:51.600Z,27.10
2023-07-28T08:05:17.822Z,27.00
2023-07-28T08:07:44.768Z,27.00
2023-07-28T08:10:10.952Z,27.10
2023-07-28T08:12:37.125Z,27.10
2023-07-28T08:15:03.910Z,27.10
2023-07-28T08:17:30.146Z,27.10
2023-07-28T08:19:56.376Z,27.10
2023-07-28T08:22:22.850Z,27.10
2023-07-28T08:24:48.980Z,27.10
2023-07-28T08:27:15.132Z,27.10
2023-07-28T08:29:41.332Z,27.00
2023-07-28T08:32:08.030Z,27.10
2023-07-28T08:34:34.216Z,27.10
2023-07-28T08:37:00.360Z,27.10
2023-07-28T08:39:26.544Z,27.00
2023-07-28T08:42:02.672Z,27.10
2023-07-28T08:44:33.669Z,27.10
2023-07-28T08:47:04.958Z,27.10
2023-07-28T08:49:36.740Z,27.00
2023-07-28T08:52:04.201Z,27.00
2023-07-28T08:54:30.531Z,27.10
2023-07-28T08:56:58.697Z,27.00
2023-07-28T08:59:27.257Z,27.10
2023-07-28T09:01:57.257Z,27.10
2023-07-28T09:04:24.321Z,27.10
2023-07-28T09:06:51.376Z,27.10
2023-07-28T09:09:25.704Z,27.10
2023-07-28T09:11:54.084Z,27.10
2023-07-28T09:14:24.117Z,27.10
2023-07-28T09:16:50.437Z,27.10
2023-07-28T09:19:16.662Z,27.10
2023-07-28T09:21:46.500Z,27.10
2023-07-28T09:24:14.085Z,27.10
2023-07-28T09:26:46.182Z,27.10
2023-07-28T09:29:19.325Z,27.10
2023-07-28T09:31:47.154Z,27.10
2023-07-28T09:34:24.832Z,27.10
2023-07-28T09:36:51.737Z,27.10
2023-07-28T09:39:20.417Z,27.10
2023-07-28T09:41:47.348Z,27.10
2023-07-28T09:44:13.636Z,27.10
2023-07-28T09:46:54.323Z,27.10
2023-07-28T09:49:26.402Z,27.10
2023-07-28T09:51:55.303Z,27.10
2023-07-28T09:54:28.074Z,27.10
2023-07-28T09:56:57.962Z,27.10
2023-07-28T09:59:30.139Z,27.10
2023-07-28T10:01:58.743Z,27.10
2023-07-28T10:04:25.042Z,27.10
2023-07-28T10:06:56.807Z,27.10
2023-07-28T10:09:28.859Z,27.10
2023-07-28T10:11:56.050Z,27.10
2023-07-28T10:14:37.802Z,27.10
2023-07-28T10:17:15.535Z,27.10
2023-07-28T10:19:41.730Z,27.10
2023-07-28T10:22:09.805Z,27.10
2023-07-28T10:25:00.908Z,27.10
2023-07-28T10:27:30.827Z,27.10
2023-07-28T10:29:59.533Z,27.00
2023-07-28T10:32:29.721Z,27.10
2023-07-28T10:35:24.189Z,27.10
2023-07-28T10:37:50.958Z,27.10
2023-07-28T10:40:31.536Z,27.10
2023-07-28T10:42:59.430Z,27.10
2023-07-28T10:45:27.632Z,27.10
2023-07-28T10:48:00.218Z,27.10
2023-07-28T10:50:30.502Z,27.10
2023-07-28T10:52:57.212Z,27.10
2023-07-28T10:55:25.591Z,27.10
2023-07-28T10:57:54.601Z,27.10
2023-07-28T11:00:23.311Z,27.10
2023-07-28T11:02:53.492Z,27.10
2023-07-28T11:05:28.126Z,27.10
2023-07-28T11:07:56.649Z,27.10
2023-07-28T11:10:23.431Z,27.10
2023-07-28T11:12:51.303Z,27.10
2023-07-28T11:15:18.282Z,27.10
2023-07-28T11:17:50.271Z,27.10
2023-07-28T11:20:17.610Z,27.10
2023-07-28T11:22:57.715Z,27.10
2023-07-28T11:25:25.420Z,27.10
2023-07-28T11:27:52.331Z,27.10
2023-07-28T11:30:19.847Z,27.10
2023-07-28T11:32:48.527Z,27.10
2023-07-28T11:35:16.065Z,27.10
2023-07-28T11:37:43.937Z,27.10
2023-07-28T11:40:11.897Z,27.10
2023-07-28T11:42:39.532Z,27.10
2023-07-28T11:45:07.140Z,27.10
2023-07-28T11:47:34.130Z,27.10
2023-07-28T11:50:00.971Z,27.10
2023-07-28T11:52:32.423Z,27.10
2023-07-28T11:55:03.100Z,27.10
2023-07-28T11:57:33.310Z,27.10
2023-07-28T12:00:00.150Z,27.10
2023-07-28T12:02:32.018Z,27.10
2023-07-28T12:07:32.737Z,27.10
2023-07-28T12:10:10.337Z,27.10
2023-07-28T12:20:52.639Z,27.10
2023-07-28T12:25:51.146Z,27.10
2023-07-28T12:28:20.317Z,27.10
2023-07-28T12:30:49.324Z,27.10
2023-07-28T12:44:06.119Z,27.10
2023-07-28T12:48:27.740Z,27.10
2023-07-28T12:53:23.670Z,27.10
2023-07-28T13:03:17.980Z,27.10
2023-07-28T13:05:45.047Z,27.10
2023-07-28T13:08:11.435Z,27.10
2023-07-28T13:13:13.197Z,27.10
2023-07-28T13:15:39.971Z,27.10
2023-07-28T13:18:06.209Z,27.10
2023-07-28T13:20:32.553Z,27.10
2023-07-28T13:22:58.704Z,27.10
2023-07-28T13:25:24.860Z,27.10
2023-07-28T13:27:51.118Z,27.10
2023-07-28T13:30:17.303Z,27.10
2023-07-28T13:32:43.491Z,27.10
2023-07-28T13:35:09.912Z,27.10
2023-07-28T13:37:36.109Z,27.10
2023-07-28T13:40:02.397Z,27.10
2023-07-28T13:42:28.565Z,27.10
2023-07-28T13:44:58.492Z,27.10
2023-07-28T13:47:25.517Z,27.10
2023-07-28T13:49:52.275Z,27.10
2023-07-28T13:52:21.764Z,27.10
2023-07-28T13:57:18.142Z,27.10
2023-07-28T13:59:44.595Z,27.10
2023-07-28T14:02:10.771Z,27.10
2023-07-28T14:04:36.947Z,27.10
2023-07-28T14:07:03.273Z,27.10
2023-07-28T14:09:29.477Z,27.10
2023-07-28T14:11:55.730Z,27.10
2023-07-28T14:14:21.963Z,27.10
2023-07-28T14:16:48.193Z,27.10
2023-07-28T14:19:14.438Z,27.10
2023-07-28T14:21:41.079Z,27.10
2023-07-28T14:24:08.420Z,27.10
2023-07-28T14:26:34.615Z,27.10
2023-07-28T14:29:00.838Z,27.10
2023-07-28T14:31:27.024Z,27.10
2023-07-28T14:33:53.250Z,27.10
2023-07-28T14:36:19.424Z,27.10
2023-07-28T14:38:45.798Z,27.10
2023-07-28T14:41:12.033Z,27.10
2023-07-28T14:43:38.196Z,27.10
2023-07-28T14:46:04.473Z,27.10
2023-07-28T14:48:30.682Z,27.10
2023-07-28T14:50:56.887Z,27.10
2023-07-28T14:53:31.060Z,27.10
2023-07-28T14:55:57.444Z,27.10
2023-07-28T14:58:24.307Z,27.10
2023-07-28T15:00:50.599Z,27.10
2023-07-28T15:03:16.971Z,27.10
2023-07-28T15:05:43.349Z,27.10
2023-07-28T15:08:09.544Z,27.10
2023-07-28T15:10:35.690Z,27.10
2023-07-28T15:13:01.846Z,27.10
2023-07-28T15:15:28.010Z,27.10
2023-07-28T15:17:54.688Z,27.10
2023-07-28T15:20:22.237Z,27.10
2023-07-28T15:22:48.583Z,27.10
2023-07-28T15:25:14.833Z,27.10
2023-07-28T15:27:44.261Z,27.10
2023-07-28T15:30:10.908Z,27.10
2023-07-28T15:32:37.808Z,27.10
2023-07-28T15:35:04.913Z,27.10
2023-07-28T15:37:31.309Z,27.10
2023-07-28T15:39:57.470Z,27.10
2023-07-28T15:42:25.489Z,27.10
2023-07-28T15:44:53.050Z,27.10
2023-07-28T15:47:19.650Z,27.10
2023-07-28T15:49:45.944Z,27.10
2023-07-28T15:52:12.242Z,27.10
2023-07-28T15:54:38.432Z,27.10
2023-07-28T15:57:05.023Z,27.10
2023-07-28T15:59:33.394Z,27.10
2023-07-28T16:01:59.628Z,27.10
2023-07-28T16:04:25.933Z,27.10
2023-07-28T16:06:52.565Z,27.10
2023-07-28T16:09:18.916Z,27.10
2023-07-28T16:11:45.075Z,27.10
2023-07-28T16:14:12.333Z,27.10
2023-07-28T16:16:39.240Z,27.10
2023-07-28T16:19:06.636Z,27.10
2023-07-28T16:21:33.627Z,27.10
2023-07-28T16:24:00.421Z,27.10
2023-07-28T16:26:26.646Z,27.10
2023-07-28T16:28:52.840Z,27.10
2023-07-28T16:31:19.007Z,27.10
2023-07-28T16:33:45.196Z,27.10
2023-07-28T16:36:14.294Z,27.00
2023-07-28T16:38:40.629Z,27.10
2023-07-28T16:41:06.865Z,27.10
2023-07-28T16:43:33.055Z,27.10
2023-07-28T16:45:59.254Z,27.00
2023-07-28T16:48:25.485Z,27.00
2023-07-28T16:50:51.726Z,27.00
2023-07-28T16:53:20.506Z,27.10
2023-07-28T16:55:46.740Z,27.00
2023-07-28T16:58:13.003Z,27.10
2023-07-28T17:00:39.812Z,27.00
2023-07-28T17:03:06.075Z,27.10
2023-07-28T17:05:32.260Z,27.10
2023-07-28T17:07:58.421Z,27.10
2023-07-28T17:10:24.804Z,27.10
2023-07-28T17:12:50.984Z,27.20
2023-07-28T17:15:30.007Z,27.20
2023-07-28T17:18:00.873Z,27.20
2023-07-28T17:20:27.123Z,27.20
2023-07-28T17:22:53.239Z,27.30
2023-07-28T17:25:21.797Z,27.30
2023-07-28T17:27:47.953Z,27.30
2023-07-28T17:30:14.143Z,27.30
2023-07-28T17:32:40.294Z,27.40
2023-07-28T17:35:09.122Z,27.40
2023-07-28T17:37:35.444Z,27.40
2023-07-28T17:40:01.654Z,27.40
2023-07-28T17:42:27.790Z,27.40
2023-07-28T17:44:53.929Z,27.40
2023-07-28T17:47:20.540Z,27.40
2023-07-28T17:49:46.857Z,27.50
2023-07-28T17:52:13.734Z,27.50
2023-07-28T17:54:39.945Z,27.50
2023-07-28T17:57:06.523Z,27.50
2023-07-28T17:59:32.656Z,27.50
2023-07-28T18:01:59.407Z,27.50
2023-07-28T18:04:25.613Z,27.50
2023-07-28T18:06:51.770Z,27.50
2023-07-28T18:09:18.442Z,27.50
2023-07-28T18:11:44.690Z,27.50
2023-07-28T18:14:10.822Z,27.60
2023-07-28T18:16:37.232Z,27.60
2023-07-28T18:19:03.459Z,27.60
2023-07-28T18:21:29.647Z,27.50
2023-07-28T18:23:55.781Z,27.60
2023-07-28T18:26:21.937Z,27.60
2023-07-28T18:28:48.099Z,27.60
2023-07-28T18:31:14.318Z,27.60
2023-07-28T18:33:40.928Z,27.60
2023-07-28T18:36:07.128Z,27.60
2023-07-28T18:38:33.289Z,27.60
2023-07-28T18:40:59.443Z,27.60
2023-07-28T18:43:27.873Z,27.60
2023-07-28T18:45:57.173Z,27.60
2023-07-28T18:48:23.426Z,27.70
2023-07-28T18:50:50.176Z,27.60
2023-07-28T18:53:16.860Z,27.60
2023-07-28T18:55:43.001Z,27.60
2023-07-28T18:58:09.161Z,27.60
2023-07-28T19:00:35.386Z,27.60
2023-07-28T19:03:01.701Z,27.70
2023-07-28T19:05:27.951Z,27.70
2023-07-28T19:07:54.090Z,27.60
2023-07-28T19:10:20.288Z,27.70
2023-07-28T19:12:46.513Z,27.70
2023-07-28T19:15:12.717Z,27.70
2023-07-28T19:17:38.937Z,27.70
2023-07-28T19:20:08.185Z,27.70
2023-07-28T19:22:34.526Z,27.70
2023-07-28T19:25:00.691Z,27.70
2023-07-28T19:27:27.882Z,27.70
2023-07-28T19:29:54.782Z,27.70
2023-07-28T19:32:21.008Z,27.70
2023-07-28T19:34:47.287Z,27.70
2023-07-28T19:37:13.411Z,27.70
2023-07-28T19:39:40.930Z,27.70
2023-07-28T19:42:07.194Z,27.70
2023-07-28T19:44:41.584Z,27.70
2023-07-28T19:47:09.142Z,27.80
2023-07-28T19:49:35.388Z,27.70
2023-07-28T19:52:01.654Z,27.70
2023-07-28T19:54:30.186Z,27.70
2023-07-28T19:56:56.348Z,27.70
2023-07-28T19:59:23.378Z,27.70
2023-07-28T20:01:49.506Z,27.70
2023-07-28T20:04:15.631Z,27.70
2023-07-28T20:06:41.781Z,27.70
2023-07-28T20:09:08.402Z,27.70
2023-07-28T20:11:34.599Z,27.70
2023-07-28T20:14:00.760Z,27.70
2023-07-28T20:16:26.951Z,27.80
2023-07-28T20:18:54.278Z,27.70
2023-07-28T20:21:20.526Z,27.80
2023-07-28T20:23:46.667Z,27.70
2023-07-28T20:26:12.883Z,27.70
2023-07-28T20:28:41.853Z,27.70
2023-07-28T20:31:08.063Z,27.70
2023-07-28T20:33:34.259Z,27.70
2023-07-28T20:36:00.870Z,27.80
2023-07-28T20:38:27.033Z,27.70
2023-07-28T20:40:53.225Z,27.80
2023-07-28T20:43:19.664Z,27.80
2023-07-28T20:45:45.837Z,27.80
2023-07-28T20:48:12.358Z,27.80
2023-07-28T20:50:38.566Z,27.80
2023-07-28T20:53:04.770Z,27.80
2023-07-28T20:55:30.972Z,27.70
2023-07-28T20:58:01.611Z,27.70
2023-07-28T21:00:29.326Z,27.80
2023-07-28T21:02:55.638Z,27.70
2023-07-28T21:05:21.885Z,27.80
2023-07-28T21:07:48.086Z,27.80
2023-07-28T21:10:14.239Z,27.80
2023-07-28T21:12:40.798Z,27.80
2023-07-28T21:15:07.412Z,27.70
2023-07-28T21:17:33.654Z,27.80
2023-07-28T21:20:00.085Z,27.80
2023-07-28T21:22:26.559Z,27.80
2023-07-28T21:24:52.716Z,27.80
2023-07-28T21:27:18.888Z,27.80
2023-07-28T21:29:45.052Z,27.80
2023-07-28T21:32:11.701Z,27.80
2023-07-28T21:34:37.933Z,27.80
2023-07-28T21:37:05.126Z,27.80
2023-07-28T21:39:32.128Z,27.80
2023-07-28T21:41:58.758Z,27.80
2023-07-28T21:44:26.272Z,27.80
2023-07-28T21:46:53.006Z,27.80
2023-07-28T21:49:20.635Z,27.80
2023-07-28T21:51:46.793Z,27.80
2023-07-28T21:54:13.045Z,27.80
2023-07-28T21:56:39.248Z,27.80
2023-07-28T21:59:05.426Z,27.80
2023-07-28T22:01:31.769Z,27.80
2023-07-28T22:03:58.003Z,27.80
2023-07-28T22:06:24.210Z,27.80
2023-07-28T22:08:50.473Z,27.80
2023-07-28T22:11:16.687Z,27.80
2023-07-28T22:13:42.856Z,27.80
2023-07-28T22:16:09.089Z,27.80
2023-07-28T22:18:35.263Z,27.80
2023-07-28T22:21:02.038Z,27.80
2023-07-28T22:23:28.287Z,27.80
2023-07-28T22:25:54.504Z,27.80
2023-07-28T22:28:20.787Z,27.80
2023-07-28T22:30:46.940Z,27.80
2023-07-28T22:33:13.600Z,27.80
2023-07-28T22:35:39.924Z,27.80
2023-07-28T22:38:06.730Z,27.80
2023-07-28T22:40:32.902Z,27.80
2023-07-28T22:42:59.427Z,27.80
2023-07-28T22:45:26.014Z,27.80
2023-07-28T22:47:52.383Z,27.80
2023-07-28T22:50:18.652Z,27.90
2023-07-28T22:52:44.833Z,27.90
2023-07-28T22:55:16.396Z,27.80
2023-07-28T22:57:44.226Z,27.80
2023-07-28T23:00:12.424Z,27.80
2023-07-28T23:02:39.067Z,27.80
2023-07-28T23:05:09.625Z,27.80
2023-07-28T23:07:36.573Z,27.90
2023-07-28T23:10:02.941Z,27.80
2023-07-28T23:12:29.072Z,27.80
2023-07-28T23:14:55.203Z,27.90
2023-07-28T23:17:22.408Z,27.80
2023-07-28T23:19:49.648Z,27.90
2023-07-28T23:22:15.922Z,27.80
2023-07-28T23:24:42.080Z,27.80
2023-07-28T23:27:09.141Z,27.90
2023-07-28T23:29:35.353Z,27.90
2023-07-28T23:32:02.167Z,27.90
2023-07-28T23:34:28.604Z,27.80
2023-07-28T23:36:54.861Z,27.80
2023-07-28T23:39:21.316Z,27.80
2023-07-28T23:41:47.433Z,27.90
2023-07-28T23:44:13.564Z,27.90
2023-07-28T23:46:40.018Z,27.90
2023-07-28T23:49:06.753Z,27.80
2023-07-28T23:51:33.022Z,27.90
2023-07-28T23:53:59.308Z,27.90
2023-07-28T23:56:25.612Z,27.90
2023-07-28T23:58:51.729Z,27.80
